Time;durP1;ratioP1;P1;durP2;ratioP2;P2;SDS_P1;SDS_P2;PMS_P1;PMS_P2;Temp;Humidity;BMP_temperature;BMP_pressure;BME280_temperature;BME280_humidity;BME280_pressure;Samples;Min_cycle;Max_cycle;Signal;HPM_P1;HPM_P2
2021/01/04 00:01:58;;;;;;;10.83;9.70;;;;;;;-0.09;92.64;100325.97;5061545;28;20879;-73
2021/01/04 00:04:59;;;;;;;10.30;9.23;;;;;;;-0.06;92.31;100333.72;5062449;28;20452;-73
2021/01/04 00:07:53;;;;;;;8.47;7.67;;;;;;;-0.09;92.17;100325.97;5019627;28;20480;-73
2021/01/04 00:10:27;;;;;;;10.60;7.83;;;;;;;-0.06;92.21;100327.63;4999296;28;20520;-72
2021/01/04 00:12:57;;;;;;;9.20;8.30;;;;;;;-0.03;92.45;100328.34;5000220;28;20503;-72
2021/01/04 00:15:26;;;;;;;8.07;7.03;;;;;;;-0.08;92.00;100327.69;4998434;28;24933;-72
2021/01/04 00:18:09;;;;;;;7.97;7.10;;;;;;;-0.06;91.93;100325.00;5000183;28;20491;-72
2021/01/04 00:20:40;;;;;;;9.27;7.53;;;;;;;-0.08;92.03;100322.44;4999405;28;20478;-72
2021/01/04 00:23:13;;;;;;;8.50;7.53;;;;;;;-0.07;92.02;100323.28;5000377;28;21169;-73
2021/01/04 00:25:49;;;;;;;7.23;6.53;;;;;;;-0.05;92.03;100321.47;4999679;28;20495;-73
2021/01/04 00:28:17;;;;;;;8.23;7.43;;;;;;;-0.02;92.13;100327.44;4999975;28;20464;-73
2021/01/04 00:30:48;;;;;;;8.10;6.97;;;;;;;0.02;91.55;100324.63;4999238;28;20503;-73
2021/01/04 00:33:19;;;;;;;7.50;6.80;;;;;;;-0.01;92.17;100323.84;4999999;28;20915;-73
2021/01/04 00:35:48;;;;;;;7.70;6.70;;;;;;;-0.04;92.21;100324.00;4999237;28;20534;-73
2021/01/04 00:38:28;;;;;;;7.47;6.70;;;;;;;-0.03;91.98;100323.06;4999883;28;20530;-73
2021/01/04 00:41:01;;;;;;;6.97;6.10;;;;;;;-0.02;91.58;100322.16;4999155;28;20735;-74
2021/01/04 00:43:32;;;;;;;7.37;6.10;;;;;;;-0.06;91.75;100325.00;5000004;28;20510;-72
2021/01/04 00:45:59;;;;;;;7.90;7.10;;;;;;;-0.04;91.55;100324.00;5009543;28;20476;-73
2021/01/04 00:48:31;;;;;;;7.43;5.93;;;;;;;-0.07;91.76;100331.16;5062396;28;20452;-72
2021/01/04 00:51:17;;;;;;;6.63;5.93;;;;;;;-0.07;92.15;100334.66;5060744;28;20834;-72
2021/01/04 00:53:45;;;;;;;7.27;5.60;;;;;;;-0.02;91.81;100332.69;5062345;28;20514;-73
2021/01/04 00:56:37;;;;;;;7.50;6.77;;;;;;;-0.03;91.99;100327.50;5060217;28;20519;-72
2021/01/04 00:59:20;;;;;;;7.07;6.20;;;;;;;-0.02;91.97;100322.16;5061642;28;20499;-73
2021/01/04 01:02:02;;;;;;;6.93;6.00;;;;;;;0.00;92.05;100324.72;5040153;28;20496;-73
2021/01/04 01:04:33;;;;;;;7.73;6.93;;;;;;;0.00;92.11;100327.34;5061997;28;20502;-73
2021/01/04 01:07:05;;;;;;;7.30;5.73;;;;;;;-0.05;92.16;100324.09;5063365;28;20498;-73
2021/01/04 01:09:34;;;;;;;8.53;7.40;;;;;;;0.01;91.88;100325.56;5065481;28;20864;-73
2021/01/04 01:12:11;;;;;;;7.37;6.67;;;;;;;0.01;92.05;100325.56;5064778;28;20476;-73
2021/01/04 01:14:43;;;;;;;7.40;6.10;;;;;;;-0.03;92.13;100328.34;5065854;28;20489;-73
2021/01/04 01:17:47;;;;;;;6.70;6.00;;;;;;;-0.03;91.90;100330.97;5065151;28;20504;-73
2021/01/04 01:20:18;;;;;;;7.00;6.30;;;;;;;-0.05;92.09;100338.06;5064618;28;20508;-73
2021/01/04 01:22:45;;;;;;;6.53;5.93;;;;;;;-0.04;91.86;100338.91;5065581;28;20451;-71
2021/01/04 01:25:16;;;;;;;6.83;6.13;;;;;;;-0.03;91.98;100330.97;5064411;28;20491;-71
2021/01/04 01:28:45;;;;;;;6.90;6.00;;;;;;;-0.02;91.70;100335.31;5065288;28;20492;-72
2021/01/04 01:31:32;;;;;;;7.70;7.00;;;;;;;0.03;91.84;100352.63;5064151;28;20504;-71
2021/01/04 01:34:23;;;;;;;6.17;5.53;;;;;;;0.03;91.27;100350.84;5065360;28;20444;-73
2021/01/04 01:37:04;;;;;;;5.70;5.10;;;;;;;0.01;91.22;100351.84;5064155;28;20473;-73
2021/01/04 01:40:11;;;;;;;6.40;5.80;;;;;;;0.02;90.91;100348.28;5065497;28;20512;-72
2021/01/04 01:43:24;;;;;;;6.70;5.83;;;;;;;0.06;91.40;100355.97;5033514;28;20586;-72
2021/01/04 01:45:55;;;;;;;6.43;5.80;;;;;;;0.02;91.54;100358.81;5063626;28;20496;-71
2021/01/04 01:48:31;;;;;;;7.10;6.30;;;;;;;0.03;91.51;100355.25;5045464;28;20469;-73
2021/01/04 01:51:03;;;;;;;6.70;5.93;;;;;;;0.06;91.40;100350.72;5059343;28;20468;-72
2021/01/04 01:53:39;;;;;;;6.80;6.17;;;;;;;0.03;91.50;100355.25;5065156;28;21049;-73
2021/01/04 01:56:16;;;;;;;7.20;6.50;;;;;;;0.09;91.50;100355.00;5063519;28;21000;-72
2021/01/04 01:59:03;;;;;;;6.80;6.10;;;;;;;0.14;90.71;100352.97;5064321;28;20496;-72
2021/01/04 02:01:36;;;;;;;7.60;5.80;;;;;;;0.04;91.03;100360.44;5063308;28;20530;-72
2021/01/04 02:04:05;;;;;;;5.87;5.27;;;;;;;0.16;90.98;100361.66;5065037;28;20505;-72
2021/01/04 02:06:38;;;;;;;7.50;6.60;;;;;;;0.12;90.92;100352.19;5063223;28;20468;-73
2021/01/04 02:09:09;;;;;;;6.80;6.10;;;;;;;0.07;91.32;100352.44;5064676;28;20504;-73
2021/01/04 02:11:44;;;;;;;6.03;5.43;;;;;;;0.05;91.23;100356.88;5063104;28;20468;-73
2021/01/04 02:14:15;;;;;;;6.90;6.00;;;;;;;0.05;91.19;100354.25;5064967;28;20538;-77
2021/01/04 02:16:52;;;;;;;6.63;5.93;;;;;;;0.07;91.31;100352.44;5063045;28;20527;-72
2021/01/04 02:19:29;;;;;;;7.47;6.60;;;;;;;0.12;91.50;100358.31;5064914;28;20496;-73
2021/01/04 02:22:37;;;;;;;7.40;6.10;;;;;;;0.12;91.94;100357.44;5063303;28;20586;-72
2021/01/04 02:25:05;;;;;;;7.27;6.23;;;;;;;0.14;91.61;100355.59;4983239;28;20466;-73
2021/01/04 02:27:34;;;;;;;6.80;6.10;;;;;;;0.09;91.44;100344.47;4981054;28;20506;-72
2021/01/04 02:30:00;;;;;;;6.90;6.20;;;;;;;0.13;91.68;100346.03;4983211;28;20485;-73
2021/01/04 02:32:27;;;;;;;7.57;6.80;;;;;;;0.10;91.54;100351.41;4981401;28;20551;-72
2021/01/04 02:34:55;;;;;;;8.80;6.90;;;;;;;0.01;91.88;100351.84;4982976;28;20476;-73
2021/01/04 02:37:23;;;;;;;7.60;6.07;;;;;;;0.02;91.51;100343.91;4981689;28;20715;-72
2021/01/04 02:39:51;;;;;;;9.23;6.17;;;;;;;0.01;91.58;100351.84;4982335;28;20512;-73
2021/01/04 02:42:21;;;;;;;7.63;6.63;;;;;;;-0.02;91.81;100348.44;4981117;28;20512;-73
2021/01/04 02:44:48;;;;;;;7.37;6.50;;;;;;;0.06;91.85;100352.50;4982963;28;20524;-73
2021/01/04 02:47:47;;;;;;;7.67;6.87;;;;;;;0.03;91.64;100348.22;4981036;28;21077;-74
2021/01/04 02:50:30;;;;;;;8.47;7.13;;;;;;;0.05;91.70;100349.00;4981674;28;20516;-74
2021/01/04 02:53:08;;;;;;;9.40;7.20;;;;;;;0.05;91.67;100343.72;4981984;28;20484;-73
2021/01/04 02:55:42;;;;;;;7.70;6.90;;;;;;;0.07;91.90;100346.28;4981458;28;21089;-74
2021/01/04 02:58:27;;;;;;;7.67;6.87;;;;;;;0.03;92.07;100348.22;4981828;28;20498;-73
2021/01/04 03:00:57;;;;;;;9.00;7.90;;;;;;;0.02;91.90;100349.16;5025201;28;20532;-73
2021/01/04 03:03:24;;;;;;;8.37;7.57;;;;;;;0.06;91.74;100345.44;5064060;28;20449;-73
2021/01/04 03:05:50;;;;;;;8.30;7.37;;;;;;;0.05;91.60;100346.38;5062655;28;20542;-74
2021/01/04 03:08:16;;;;;;;9.87;7.37;;;;;;;0.05;91.76;100353.41;5063457;28;20909;-72
2021/01/04 03:10:43;;;;;;;9.53;8.10;;;;;;;0.02;91.84;100353.53;5061764;28;20551;-72
2021/01/04 03:13:16;;;;;;;9.90;8.90;;;;;;;0.02;92.00;100343.03;5063334;28;20726;-72
2021/01/04 03:16:05;;;;;;;8.10;7.13;;;;;;;-0.03;91.95;100356.41;5062113;28;20468;-72
2021/01/04 03:18:35;;;;;;;9.50;7.80;;;;;;;-0.04;92.17;100354.69;5062382;28;20497;-72
2021/01/04 03:21:02;;;;;;;7.83;7.03;;;;;;;-0.04;91.96;100360.78;5060510;28;20509;-72
2021/01/04 03:23:30;;;;;;;8.00;7.03;;;;;;;-0.03;92.03;100362.50;5063543;28;20977;-72
2021/01/04 03:25:58;;;;;;;8.40;6.93;;;;;;;-0.04;91.76;100359.94;5042767;28;20470;-72
2021/01/04 03:28:27;;;;;;;8.83;7.97;;;;;;;0.01;92.00;100367.63;5045683;28;20461;-72
2021/01/04 03:30:53;;;;;;;9.80;8.07;;;;;;;-0.01;92.44;100359.81;5062214;28;20492;-72
2021/01/04 03:33:20;;;;;;;8.70;7.77;;;;;;;0.02;92.19;100364.94;5063971;28;20489;-71
2021/01/04 03:35:47;;;;;;;7.93;7.10;;;;;;;-0.06;92.17;100360.00;5062312;28;20469;-72
2021/01/04 03:38:13;;;;;;;7.73;6.90;;;;;;;-0.07;92.32;100360.06;5063262;28;20518;-72
2021/01/04 03:40:39;;;;;;;9.60;7.83;;;;;;;-0.04;92.39;100362.56;5062139;28;20476;-72
2021/01/04 03:43:06;;;;;;;11.00;8.20;;;;;;;-0.05;92.26;100359.09;5062732;28;20484;-72
2021/01/04 03:45:33;;;;;;;10.13;8.53;;;;;;;-0.06;92.37;100361.78;5061527;28;20492;-72
2021/01/04 03:47:59;;;;;;;9.20;8.17;;;;;;;-0.01;92.35;100367.69;5063045;28;20973;-72
2021/01/04 03:50:25;;;;;;;9.80;8.80;;;;;;;-0.01;92.45;100355.38;5062154;28;20456;-73
2021/01/04 03:52:51;;;;;;;11.23;8.53;;;;;;;-0.06;92.68;100356.53;5063245;28;20473;-72
2021/01/04 03:55:18;;;;;;;11.23;8.10;;;;;;;-0.11;92.87;100348.00;5060718;28;20863;-71
2021/01/04 03:57:45;;;;;;;11.57;9.40;;;;;;;-0.10;92.66;100352.34;5061995;28;20476;-71
2021/01/04 04:00:14;;;;;;;11.17;7.93;;;;;;;-0.11;92.96;100364.63;5061801;28;20537;-73
2021/01/04 04:02:41;;;;;;;11.53;8.43;;;;;;;-0.11;92.93;100363.78;5063089;28;20460;-71
2021/01/04 04:05:09;;;;;;;11.43;9.03;;;;;;;-0.15;93.22;100365.69;5061477;28;20483;-72
2021/01/04 04:07:35;;;;;;;11.57;8.97;;;;;;;-0.18;93.22;100362.34;5062121;28;20441;-72
2021/01/04 04:10:01;;;;;;;9.43;8.33;;;;;;;-0.14;93.04;100364.78;5062782;28;20453;-72
2021/01/04 04:12:28;;;;;;;11.90;8.80;;;;;;;-0.23;93.20;100359.94;5060978;28;20512;-71
2021/01/04 04:14:54;;;;;;;11.90;7.93;;;;;;;-0.20;93.26;100365.03;5062578;28;20487;-72
2021/01/04 04:17:20;;;;;;;10.93;8.00;;;;;;;-0.21;93.35;100365.97;5061264;28;20480;-72
2021/01/04 04:19:48;;;;;;;10.20;9.17;;;;;;;-0.19;93.42;100377.28;5062627;28;20488;-72
2021/01/04 04:22:15;;;;;;;9.77;7.80;;;;;;;-0.18;93.25;100368.44;5061872;28;20511;-72
2021/01/04 04:24:42;;;;;;;10.00;8.00;;;;;;;-0.17;93.63;100362.28;5061872;28;20453;-72
2021/01/04 04:27:08;;;;;;;10.20;8.00;;;;;;;-0.03;92.76;100367.75;5061022;28;20495;-72
2021/01/04 04:29:35;;;;;;;11.50;8.80;;;;;;;-0.10;93.00;100370.75;5062075;28;20453;-71
2021/01/04 04:32:01;;;;;;;10.40;8.90;;;;;;;-0.18;93.17;100373.72;5061166;28;20802;-72
2021/01/04 04:34:27;;;;;;;11.20;8.30;;;;;;;-0.20;93.23;100365.88;5062025;28;20479;-72
2021/01/04 04:36:54;;;;;;;10.73;8.43;;;;;;;-0.16;93.55;100366.59;5061137;28;21045;-72
2021/01/04 04:39:20;;;;;;;10.33;8.93;;;;;;;-0.19;93.55;100374.66;5062202;28;20511;-72
2021/01/04 04:41:48;;;;;;;10.23;8.50;;;;;;;-0.21;93.48;100374.72;5060305;28;20548;-72
2021/01/04 04:44:25;;;;;;;11.87;8.90;;;;;;;-0.21;93.19;100373.84;5061885;28;20546;-72
2021/01/04 04:47:00;;;;;;;11.67;8.90;;;;;;;-0.21;93.37;100373.84;5060931;28;20476;-72
2021/01/04 04:49:47;;;;;;;10.90;8.70;;;;;;;-0.24;93.29;100376.63;5061921;28;20475;-72
2021/01/04 04:52:30;;;;;;;9.60;8.53;;;;;;;-0.23;93.61;100373.06;5060905;28;20504;-71
2021/01/04 04:55:04;;;;;;;9.33;7.73;;;;;;;-0.22;93.47;100367.75;5061786;28;21023;-72
2021/01/04 04:57:43;;;;;;;9.00;7.63;;;;;;;-0.21;93.61;100377.34;5060362;28;20751;-72
2021/01/04 05:00:38;;;;;;;11.37;8.90;;;;;;;-0.21;93.74;100376.47;5060643;28;20477;-72
2021/01/04 05:03:14;;;;;;;9.47;7.60;;;;;;;-0.21;93.46;100376.47;5061866;28;20495;-71
2021/01/04 05:05:57;;;;;;;11.47;8.40;;;;;;;-0.18;93.52;100376.34;5060619;28;20502;-72
2021/01/04 05:08:43;;;;;;;10.83;7.90;;;;;;;-0.08;93.32;100374.16;5061932;28;20468;-72
2021/01/04 05:11:10;;;;;;;9.90;7.70;;;;;;;-0.16;93.45;100376.28;5060414;28;20925;-73
2021/01/04 05:13:40;;;;;;;9.00;7.70;;;;;;;-0.17;93.21;100380.69;5061670;28;20510;-73
2021/01/04 05:16:08;;;;;;;9.63;7.90;;;;;;;-0.17;93.33;100378.06;5060084;28;21056;-72
2021/01/04 05:18:50;;;;;;;11.13;8.53;;;;;;;-0.08;93.51;100377.63;5061935;28;20456;-72
2021/01/04 05:21:49;;;;;;;13.67;7.77;;;;;;;-0.07;92.98;100378.47;5059769;28;20765;-72
2021/01/04 05:24:35;;;;;;;10.60;8.87;;;;;;;-0.11;93.14;100371.66;5053159;28;20705;-72
2021/01/04 05:27:36;;;;;;;10.83;8.20;;;;;;;-0.05;92.83;100379.28;5058300;28;20826;-72
2021/01/04 05:30:20;;;;;;;10.10;7.90;;;;;;;-0.09;93.13;100375.91;5043077;28;20480;-72
2021/01/04 05:33:13;;;;;;;9.33;7.13;;;;;;;-0.12;92.95;100378.69;5057729;28;20527;-72
2021/01/04 05:35:40;;;;;;;9.47;7.30;;;;;;;-0.14;93.18;100388.44;5056912;28;20504;-72
2021/01/04 05:38:10;;;;;;;8.87;6.93;;;;;;;-0.06;93.21;100390.69;5061123;28;20468;-72
2021/01/04 05:41:04;;;;;;;10.37;7.67;;;;;;;-0.07;93.15;100391.63;5039276;28;20481;-71
2021/01/04 05:43:41;;;;;;;12.83;7.77;;;;;;;-0.07;93.09;100387.22;5042585;28;20456;-70
2021/01/04 05:46:16;;;;;;;11.73;8.13;;;;;;;-0.11;93.31;100390.91;5049694;28;20523;-72
2021/01/04 05:49:05;;;;;;;10.30;8.37;;;;;;;-0.11;93.37;100393.53;5054005;28;20480;-72
2021/01/04 05:51:34;;;;;;;8.97;8.07;;;;;;;-0.06;93.53;100388.91;5057990;28;21073;-72
2021/01/04 05:54:00;;;;;;;13.00;8.27;;;;;;;-0.14;93.55;100391.06;5062516;28;20504;-73
2021/01/04 05:56:29;;;;;;;11.83;9.20;;;;;;;-0.13;93.72;100397.16;5062499;28;20483;-72
2021/01/04 05:59:07;;;;;;;11.80;8.90;;;;;;;-0.16;93.65;100395.50;5059049;28;20499;-71
2021/01/04 06:01:33;;;;;;;10.37;8.60;;;;;;;-0.12;93.67;100393.59;5061757;28;21001;-72
2021/01/04 06:03:59;;;;;;;13.57;9.47;;;;;;;-0.06;93.36;100394.16;5064133;28;20445;-72
2021/01/04 06:06:31;;;;;;;11.50;8.93;;;;;;;-0.12;93.47;100396.22;5062809;28;20910;-70
2021/01/04 06:09:06;;;;;;;12.20;10.00;;;;;;;-0.11;93.89;100393.53;5062275;28;20571;-71
2021/01/04 06:11:33;;;;;;;14.43;10.30;;;;;;;0.40;95.95;100393.84;5062050;28;20487;-69
2021/01/04 06:14:05;;;;;;;14.10;10.13;;;;;;;0.22;94.13;100398.16;5062915;28;20488;-69
2021/01/04 06:16:32;;;;;;;13.27;9.60;;;;;;;0.31;94.55;100399.53;5061685;28;20515;-72
2021/01/04 06:19:07;;;;;;;14.03;10.93;;;;;;;0.30;93.58;100393.41;5060092;28;20588;-69
2021/01/04 06:21:41;;;;;;;16.00;12.07;;;;;;;0.36;93.70;100394.91;5041940;28;20473;-70
2021/01/04 06:24:09;;;;;;;15.10;11.10;;;;;;;0.54;93.41;100399.31;5059334;28;20536;-70
2021/01/04 06:26:36;;;;;;;15.03;11.40;;;;;;;0.49;92.27;100395.19;5061947;28;20508;-70
2021/01/04 06:29:04;;;;;;;16.00;11.90;;;;;;;0.46;92.75;100393.53;5063052;28;20491;-70
2021/01/04 06:31:35;;;;;;;14.33;11.30;;;;;;;0.42;92.10;100394.63;5061333;28;20515;-71
2021/01/04 06:34:03;;;;;;;16.53;11.70;;;;;;;0.27;92.22;100401.44;5062654;28;20461;-70
2021/01/04 06:36:33;;;;;;;14.50;11.10;;;;;;;0.29;92.42;100402.22;5061722;28;20516;-69
2021/01/04 06:39:09;;;;;;;18.70;14.47;;;;;;;0.14;92.30;100409.06;5061794;28;20509;-70
2021/01/04 06:41:36;;;;;;;15.13;11.50;;;;;;;0.04;93.04;100406.91;5061246;28;20516;-70
2021/01/04 06:44:14;;;;;;;16.87;11.60;;;;;;;0.02;93.11;100407.00;5063389;28;20467;-70
2021/01/04 06:47:00;;;;;;;16.67;12.33;;;;;;;-0.04;93.48;100405.47;5061048;28;20519;-70
2021/01/04 06:49:28;;;;;;;19.20;12.33;;;;;;;0.01;93.64;100412.31;5062940;28;20452;-69
2021/01/04 06:52:29;;;;;;;16.10;11.93;;;;;;;0.07;93.42;100415.53;5060772;28;20481;-69
2021/01/04 06:55:40;;;;;;;15.93;11.13;;;;;;;0.19;93.24;100403.56;5011272;28;20956;-71
2021/01/04 06:58:34;;;;;;;16.90;11.43;;;;;;;0.15;92.73;100416.00;4985476;28;20476;-71
2021/01/04 07:01:23;;;;;;;16.90;11.60;;;;;;;0.09;93.04;100416.28;4979133;28;20512;-70
2021/01/04 07:04:08;;;;;;;16.40;11.07;;;;;;;0.06;93.29;100424.31;4971231;28;20456;-69
2021/01/04 07:07:13;;;;;;;17.30;10.97;;;;;;;0.11;93.01;100421.47;4976942;28;20468;-68
2021/01/04 07:10:13;;;;;;;16.90;11.33;;;;;;;0.15;92.51;100418.63;4960700;28;20499;-71
2021/01/04 07:13:11;;;;;;;17.03;12.47;;;;;;;0.16;92.90;100424.75;4959785;29;20624;-70
2021/01/04 07:15:49;;;;;;;15.50;10.90;;;;;;;0.03;93.19;100413.09;4973433;28;20461;-70
2021/01/04 07:18:28;;;;;;;17.20;11.37;;;;;;;0.09;93.26;100426.81;4979754;28;20451;-70
2021/01/04 07:21:20;;;;;;;16.20;12.90;;;;;;;0.08;93.49;100425.09;4979007;28;20496;-70
2021/01/04 07:24:07;;;;;;;17.23;12.60;;;;;;;0.13;92.93;100431.00;4979581;28;20452;-70
2021/01/04 07:26:41;;;;;;;15.47;10.93;;;;;;;0.16;92.81;100422.13;4964090;28;20476;-70
2021/01/04 07:29:28;;;;;;;16.90;10.63;;;;;;;0.18;92.85;100428.16;5012876;28;20458;-70
2021/01/04 07:32:01;;;;;;;16.53;11.77;;;;;;;0.16;93.07;100430.88;5040088;28;20497;-70
2021/01/04 07:34:29;;;;;;;17.17;11.20;;;;;;;0.22;92.64;100426.25;5041193;28;20462;-70
2021/01/04 07:37:02;;;;;;;16.77;11.00;;;;;;;0.26;92.38;100439.19;5032395;28;20516;-68
2021/01/04 07:39:37;;;;;;;16.43;11.50;;;;;;;0.20;92.68;100442.09;5038897;28;20521;-68
2021/01/04 07:42:21;;;;;;;19.10;10.70;;;;;;;0.18;92.71;100434.28;5040211;28;20476;-66
2021/01/04 07:45:10;;;;;;;17.90;11.10;;;;;;;0.19;92.89;100440.38;5041244;28;20849;-67
2021/01/04 07:48:26;;;;;;;14.87;10.40;;;;;;;0.23;92.70;100441.97;5021766;28;20470;-67
2021/01/04 07:51:13;;;;;;;19.97;11.90;;;;;;;0.24;92.43;100443.66;4978967;28;20503;-66
2021/01/04 07:54:20;;;;;;;14.90;10.57;;;;;;;0.33;91.84;100445.88;4992330;28;20455;-66
2021/01/04 07:57:39;;;;;;;16.70;11.67;;;;;;;0.31;92.00;100445.09;4994531;28;20467;-66
2021/01/04 08:00:33;;;;;;;15.70;10.87;;;;;;;0.37;91.48;100444.81;4997411;28;20515;-67
2021/01/04 08:03:38;;;;;;;16.07;11.00;;;;;;;0.35;91.81;100449.28;4980896;28;20511;-66
2021/01/04 08:06:16;;;;;;;15.03;10.90;;;;;;;0.33;91.88;100448.50;4978925;28;20483;-67
2021/01/04 08:08:46;;;;;;;17.43;12.27;;;;;;;0.35;92.10;100454.53;4987476;28;20499;-68
2021/01/04 08:11:47;;;;;;;17.33;12.20;;;;;;;0.35;92.29;100461.59;4997994;28;20561;-68
2021/01/04 08:14:55;;;;;;;16.93;11.40;;;;;;;0.39;92.10;100459.66;4990228;28;20534;-68
2021/01/04 08:17:27;;;;;;;19.67;13.50;;;;;;;0.36;91.94;100458.88;4999450;28;20798;-66
2021/01/04 08:19:58;;;;;;;20.00;13.60;;;;;;;0.34;92.12;100458.09;5000161;28;20483;-66
2021/01/04 08:22:36;;;;;;;22.40;13.13;;;;;;;0.41;92.59;100468.34;4999515;28;20504;-68
2021/01/04 08:25:07;;;;;;;20.57;13.50;;;;;;;0.42;92.07;100470.03;5000401;28;20455;-68
2021/01/04 08:27:38;;;;;;;18.30;13.27;;;;;;;0.42;92.20;100472.66;5036959;28;20466;-68
2021/01/04 08:30:10;;;;;;;20.93;13.00;;;;;;;0.42;92.24;100467.41;5040952;28;20457;-68
2021/01/04 08:32:45;;;;;;;21.53;14.50;;;;;;;0.43;92.33;100469.13;5042062;28;20447;-69
2021/01/04 08:35:28;;;;;;;20.10;13.13;;;;;;;0.45;92.07;100469.88;5039571;28;20458;-70
2021/01/04 08:37:56;;;;;;;19.47;13.23;;;;;;;0.45;92.36;100472.53;5000063;28;20442;-70
2021/01/04 08:40:27;;;;;;;20.93;13.10;;;;;;;0.47;92.44;100468.91;4998100;28;20909;-69
2021/01/04 08:43:04;;;;;;;20.63;14.03;;;;;;;0.49;92.48;100469.69;4995714;28;20472;-69
2021/01/04 08:45:35;;;;;;;20.83;13.60;;;;;;;0.57;92.06;100466.69;4997555;28;20931;-69
2021/01/04 08:48:13;;;;;;;21.13;13.93;;;;;;;0.55;92.04;100465.91;5000173;28;20447;-69
2021/01/04 08:50:45;;;;;;;21.77;14.17;;;;;;;0.58;92.00;100470.19;4996473;28;20479;-68
2021/01/04 08:53:15;;;;;;;21.47;13.60;;;;;;;0.51;92.38;100473.09;4998915;28;20509;-69
2021/01/04 08:55:41;;;;;;;21.40;15.27;;;;;;;0.63;92.14;100473.47;4994664;28;21084;-68
2021/01/04 08:58:32;;;;;;;23.97;15.97;;;;;;;0.55;92.25;100473.81;4998306;28;20983;-68
2021/01/04 09:01:05;;;;;;;18.90;14.37;;;;;;;0.63;92.14;100476.09;4997662;28;20474;-69
2021/01/04 09:03:33;;;;;;;20.50;13.40;;;;;;;0.60;92.38;100473.59;4999048;28;21055;-69
2021/01/04 09:06:12;;;;;;;18.83;14.20;;;;;;;0.61;92.04;100467.41;4997254;28;20925;-69
2021/01/04 09:08:44;;;;;;;19.63;14.27;;;;;;;0.66;92.10;100475.94;4994153;28;20521;-69
2021/01/04 09:11:11;;;;;;;21.97;14.60;;;;;;;0.71;92.10;100472.19;4995646;28;20535;-69
2021/01/04 09:13:39;;;;;;;18.67;12.53;;;;;;;0.77;91.91;100478.09;4997586;28;20499;-69
2021/01/04 09:16:10;;;;;;;17.00;12.73;;;;;;;0.78;91.45;100475.34;5034492;28;20464;-68
2021/01/04 09:18:41;;;;;;;20.80;14.10;;;;;;;0.79;91.70;100473.59;5038341;28;20462;-67
2021/01/04 09:21:18;;;;;;;16.17;11.90;;;;;;;0.71;91.63;100476.56;5038884;28;20477;-68
2021/01/04 09:23:45;;;;;;;19.10;12.83;;;;;;;0.73;91.53;100485.28;5038667;28;20461;-69
2021/01/04 09:26:22;;;;;;;19.43;14.13;;;;;;;0.75;91.90;100489.53;5039379;28;20473;-70
2021/01/04 09:29:02;;;;;;;17.87;12.67;;;;;;;0.81;91.73;100475.22;5041886;28;20449;-69
2021/01/04 09:31:29;;;;;;;19.90;12.90;;;;;;;0.83;91.41;100488.31;5041101;28;20854;-69
2021/01/04 09:33:55;;;;;;;21.10;12.97;;;;;;;0.84;91.52;100488.22;5044437;28;20474;-66
2021/01/04 09:36:22;;;;;;;18.17;13.07;;;;;;;0.84;91.79;100479.50;5042598;28;20559;-66
2021/01/04 09:39:04;;;;;;;19.07;12.83;;;;;;;0.82;91.69;100484.81;5037089;28;20465;-68
2021/01/04 09:41:31;;;;;;;19.07;13.80;;;;;;;0.88;91.74;100473.13;4979820;28;20511;-69
2021/01/04 09:44:20;;;;;;;18.47;14.03;;;;;;;0.81;91.54;100469.09;4980817;28;20452;-68
2021/01/04 09:46:49;;;;;;;20.17;13.63;;;;;;;0.84;91.30;100471.59;4902869;28;20491;-69
2021/01/04 09:49:20;;;;;;;15.90;12.43;;;;;;;0.79;91.80;100477.06;4904797;29;20838;-71
2021/01/04 09:51:50;;;;;;;17.20;12.53;;;;;;;0.78;91.68;100477.13;4903546;29;20482;-69
2021/01/04 09:54:22;;;;;;;19.33;12.70;;;;;;;0.85;91.56;100473.28;4901970;29;20452;-68
2021/01/04 09:56:49;;;;;;;16.77;12.77;;;;;;;0.87;91.72;100471.47;4902253;29;20475;-69
2021/01/04 09:59:21;;;;;;;18.40;12.73;;;;;;;0.96;91.51;100478.91;4903728;29;20488;-69
2021/01/04 10:01:49;;;;;;;17.50;11.80;;;;;;;0.87;91.36;100474.09;4901690;29;20480;-69
2021/01/04 10:04:23;;;;;;;16.50;12.63;;;;;;;0.91;91.39;100478.28;4905365;29;20448;-70
2021/01/04 10:06:49;;;;;;;16.17;11.57;;;;;;;0.91;90.83;100473.00;4898113;29;20495;-70
2021/01/04 10:09:18;;;;;;;14.73;11.63;;;;;;;0.84;90.86;100464.53;4915825;29;20481;-70
2021/01/04 10:11:46;;;;;;;14.30;10.80;;;;;;;0.87;90.65;100471.47;4920508;29;20478;-71
2021/01/04 10:14:13;;;;;;;13.83;10.80;;;;;;;0.85;90.97;100478.53;4922936;29;20886;-70
2021/01/04 10:16:42;;;;;;;12.10;10.17;;;;;;;0.86;90.77;100473.22;4919655;29;20473;-72
2021/01/04 10:19:12;;;;;;;12.13;9.20;;;;;;;0.88;90.86;100470.50;4948912;29;20496;-68
2021/01/04 10:21:45;;;;;;;12.87;9.80;;;;;;;0.94;91.04;100471.06;4958663;28;20873;-70
2021/01/04 10:24:17;;;;;;;10.07;9.03;;;;;;;0.97;90.23;100475.31;4997853;28;20450;-67
2021/01/04 10:26:47;;;;;;;9.93;8.23;;;;;;;0.91;90.48;100471.22;5022009;28;20506;-67
2021/01/04 10:29:16;;;;;;;9.60;8.53;;;;;;;0.90;90.63;100479.19;5022965;28;20487;-68
2021/01/04 10:31:43;;;;;;;10.83;9.10;;;;;;;0.87;90.90;100476.72;5020850;28;20498;-68
2021/01/04 10:34:11;;;;;;;11.20;8.27;;;;;;;0.91;90.73;100473.84;5023827;28;20451;-69
2021/01/04 10:36:38;;;;;;;9.60;8.10;;;;;;;0.86;90.17;100467.09;5020216;28;20474;-68
2021/01/04 10:39:07;;;;;;;9.23;8.00;;;;;;;0.82;90.94;100469.03;5018029;28;20866;-68
2021/01/04 10:41:35;;;;;;;10.03;8.43;;;;;;;0.77;90.43;100467.56;5021486;28;20477;-71
2021/01/04 10:44:10;;;;;;;8.70;7.80;;;;;;;0.75;90.57;100473.72;5023297;28;20500;-68
2021/01/04 10:46:53;;;;;;;8.90;8.00;;;;;;;0.73;90.78;100470.31;5022340;28;20466;-69
2021/01/04 10:49:25;;;;;;;12.23;8.57;;;;;;;0.66;91.03;100454.88;4977603;28;20471;-69
2021/01/04 10:51:54;;;;;;;9.77;7.97;;;;;;;0.70;91.10;100461.72;4980186;28;20476;-69
2021/01/04 10:54:34;;;;;;;11.47;8.90;;;;;;;0.74;90.85;100455.38;4978168;28;20460;-69
2021/01/04 10:57:07;;;;;;;8.30;7.40;;;;;;;0.71;90.90;100453.75;4977210;28;20478;-69
2021/01/04 10:59:38;;;;;;;10.50;7.80;;;;;;;0.69;91.25;100452.94;4975805;28;20490;-69
2021/01/04 11:02:05;;;;;;;10.47;7.57;;;;;;;0.67;91.21;100457.44;4976503;28;20548;-68
2021/01/04 11:04:31;;;;;;;8.90;7.87;;;;;;;0.61;91.65;100452.47;4980488;28;20868;-69
2021/01/04 11:07:04;;;;;;;14.70;7.87;;;;;;;0.63;91.39;100447.16;4979762;28;20540;-70
2021/01/04 11:09:33;;;;;;;7.43;6.70;;;;;;;0.62;91.57;100441.00;4986082;28;20480;-71
2021/01/04 11:12:13;;;;;;;8.40;7.10;;;;;;;0.71;91.54;100447.63;4990268;28;20553;-71
2021/01/04 11:14:52;;;;;;;9.53;7.50;;;;;;;0.67;91.41;100449.53;4991908;28;20486;-71
2021/01/04 11:17:21;;;;;;;9.17;7.30;;;;;;;0.74;91.51;100447.47;4989645;28;20514;-71
2021/01/04 11:19:50;;;;;;;8.07;7.10;;;;;;;0.78;91.51;100442.91;4981696;28;20570;-70
2021/01/04 11:22:20;;;;;;;7.43;6.60;;;;;;;0.80;91.42;100438.44;4981365;28;20471;-72
2021/01/04 11:24:46;;;;;;;7.73;6.93;;;;;;;0.69;90.97;100437.16;4987974;28;20455;-72
2021/01/04 11:27:12;;;;;;;8.27;6.63;;;;;;;0.60;91.55;100436.78;5017966;28;20561;-73
2021/01/04 11:29:40;;;;;;;9.10;6.83;;;;;;;0.65;91.65;100426.88;5029670;28;20455;-70
2021/01/04 11:32:07;;;;;;;9.00;7.47;;;;;;;0.65;91.66;100425.09;5027806;28;20470;-68
2021/01/04 11:34:33;;;;;;;8.47;6.67;;;;;;;0.71;91.45;100416.03;5030302;28;20898;-65
2021/01/04 11:36:59;;;;;;;8.50;7.07;;;;;;;0.78;91.14;100421.88;5029543;28;20469;-66
2021/01/04 11:39:26;;;;;;;7.50;6.73;;;;;;;0.82;91.13;100428.72;5030340;28;20497;-66
2021/01/04 11:41:52;;;;;;;7.57;6.33;;;;;;;0.86;91.14;100419.72;5029818;28;20473;-67
2021/01/04 11:44:18;;;;;;;9.40;6.77;;;;;;;0.89;91.01;100423.06;5031569;28;20450;-68
2021/01/04 11:46:46;;;;;;;9.03;7.80;;;;;;;0.80;90.92;100415.63;5030439;28;20469;-68
2021/01/04 11:49:12;;;;;;;9.23;7.47;;;;;;;0.83;90.96;100419.88;5031288;28;20898;-71
2021/01/04 11:51:38;;;;;;;8.87;7.90;;;;;;;0.72;90.97;100426.50;5028160;28;20469;-66
2021/01/04 11:54:05;;;;;;;8.83;7.23;;;;;;;0.67;91.20;100422.38;5029948;28;20482;-66
2021/01/04 11:56:32;;;;;;;7.60;6.90;;;;;;;0.74;91.47;100424.63;5030126;28;20464;-66
2021/01/04 11:58:58;;;;;;;8.47;6.63;;;;;;;0.73;90.87;100420.31;5030821;28;20458;-67
2021/01/04 12:01:25;;;;;;;8.00;7.20;;;;;;;0.77;91.10;100409.66;5024115;28;20545;-67